Time;durP1;ratioP1;P1;durP2;ratioP2;P2;SDS_P1;SDS_P2;PMS_P1;PMS_P2;Temp;Humidity;BMP_temperature;BMP_pressure;BME280_temperature;BME280_humidity;BME280_pressure;Samples;Min_cycle;Max_cycle;Signal;HPM_P1;HPM_P2
2022/01/03 00:01:19;;;;;;;6.13;2.78;;;;;;;19.33;53.22;96511.38;12589608;23;20025;-51
2022/01/03 00:06:39;;;;;;;4.60;2.45;;;;;;;19.32;53.28;96496.28;12611325;23;20581;-51
2022/01/03 00:11:59;;;;;;;4.45;2.63;;;;;;;19.31;53.27;96497.44;12610237;23;20049;-51
2022/01/03 00:17:18;;;;;;;4.47;2.42;;;;;;;19.30;53.14;96493.13;12589010;23;20073;-51
2022/01/03 00:22:53;;;;;;;6.57;2.45;;;;;;;19.30;53.35;96493.13;12611071;23;20405;-51
2022/01/03 00:28:33;;;;;;;4.85;2.60;;;;;;;19.27;53.14;96466.78;12609879;23;20049;-51
2022/01/03 00:33:57;;;;;;;3.35;2.30;;;;;;;19.28;53.26;96473.75;12630390;23;20018;-52
2022/01/03 00:39:17;;;;;;;3.75;2.30;;;;;;;19.25;53.21;96453.63;12609132;23;20018;-51
2022/01/03 00:44:36;;;;;;;3.67;2.17;;;;;;;19.26;53.21;96446.31;12610947;23;20025;-52
2022/01/03 00:49:56;;;;;;;3.63;2.17;;;;;;;19.25;53.26;96442.00;12630032;23;20018;-51
2022/01/03 00:55:17;;;;;;;5.15;2.40;;;;;;;19.23;53.05;96422.66;12609991;23;20014;-52
2022/01/03 01:00:40;;;;;;;3.60;2.20;;;;;;;19.22;53.15;96413.75;12610035;23;20569;-51
2022/01/03 01:06:03;;;;;;;2.97;2.05;;;;;;;19.21;52.98;96419.47;12588655;23;20359;-51
2022/01/03 01:11:27;;;;;;;4.45;2.28;;;;;;;19.21;53.16;96419.47;12610352;23;20018;-52
2022/01/03 01:16:47;;;;;;;4.50;2.15;;;;;;;19.21;52.99;96389.78;12587980;23;20023;-51
2022/01/03 01:22:07;;;;;;;3.72;2.20;;;;;;;19.19;53.07;96406.34;12587780;23;20026;-51
2022/01/03 01:33:11;;;;;;;3.20;2.00;;;;;;;19.15;53.02;96386.50;12588905;23;20022;-51
2022/01/03 01:38:35;;;;;;;4.90;2.22;;;;;;;19.14;52.94;96385.72;12588632;23;20465;-50
2022/01/03 01:43:58;;;;;;;4.38;2.13;;;;;;;19.13;52.90;96375.22;12610148;23;20019;-51
2022/01/03 01:49:19;;;;;;;3.53;1.95;;;;;;;19.12;52.96;96363.66;12588323;23;20052;-51
2022/01/03 01:54:59;;;;;;;2.75;1.98;;;;;;;19.11;52.85;96335.09;12588612;23;20019;-51
2022/01/03 02:00:24;;;;;;;2.83;2.00;;;;;;;19.11;52.99;96337.78;12607641;23;20459;-51
2022/01/03 02:06:00;;;;;;;2.25;1.92;;;;;;;19.09;52.86;96334.63;12629147;23;20021;-51
2022/01/03 02:11:37;;;;;;;2.90;1.92;;;;;;;19.08;52.83;96316.84;12609746;23;20026;-51
2022/01/03 02:16:57;;;;;;;2.67;1.70;;;;;;;19.08;52.88;96319.53;12587056;23;20023;-52
2022/01/03 02:22:21;;;;;;;2.70;1.80;;;;;;;19.07;52.71;96295.56;12588081;23;20537;-51
2022/01/03 02:27:50;;;;;;;3.03;1.77;;;;;;;19.06;52.79;96302.88;12587837;23;20080;-51
2022/01/03 02:33:09;;;;;;;2.40;1.90;;;;;;;19.05;52.88;96309.41;12608540;23;20204;-52
2022/01/03 02:38:31;;;;;;;3.13;1.90;;;;;;;19.04;52.83;96304.34;12609833;23;20029;-51
2022/01/03 02:43:52;;;;;;;2.72;1.80;;;;;;;19.04;52.86;96301.66;12571761;23;20025;-50
2022/01/03 02:49:12;;;;;;;2.80;1.50;;;;;;;19.03;52.81;96300.06;12611635;23;20458;-53
2022/01/03 02:54:31;;;;;;;2.22;1.50;;;;;;;19.02;52.64;96307.38;12613119;23;20014;-51
2022/01/03 02:59:58;;;;;;;2.33;1.70;;;;;;;19.02;52.69;96306.59;12591335;23;20022;-51
2022/01/03 03:05:19;;;;;;;2.30;1.60;;;;;;;19.00;52.69;96323.13;12591318;23;20018;-51
2022/01/03 03:10:40;;;;;;;2.20;1.50;;;;;;;18.98;52.64;96319.97;12611204;23;20025;-51
2022/01/03 03:16:00;;;;;;;2.63;1.67;;;;;;;18.98;52.63;96321.88;12631472;23;20026;-51
2022/01/03 03:21:21;;;;;;;1.92;1.67;;;;;;;18.97;52.55;96323.75;12610472;23;20046;-51
2022/01/03 03:26:41;;;;;;;2.38;1.45;;;;;;;18.96;52.48;96343.78;12612225;23;20019;-51
2022/01/03 03:32:01;;;;;;;2.20;1.50;;;;;;;18.95;52.58;96361.91;12612223;23;20029;-51
2022/01/03 03:37:22;;;;;;;2.05;1.48;;;;;;;18.94;52.66;96373.81;12590380;23;20522;-50
2022/01/03 03:42:43;;;;;;;3.13;1.67;;;;;;;18.93;52.58;96374.13;12609892;23;20026;-51
2022/01/03 03:48:03;;;;;;;1.70;1.60;;;;;;;18.92;52.64;96375.28;12611312;23;20021;-51
2022/01/03 03:53:22;;;;;;;2.35;1.50;;;;;;;18.91;52.68;96352.09;12589959;23;20040;-51
2022/01/03 03:58:43;;;;;;;2.30;1.60;;;;;;;18.91;52.65;96355.56;12590231;23;20065;-51
2022/01/03 04:04:03;;;;;;;1.88;1.48;;;;;;;18.90;52.51;96347.81;12589762;23;20022;-51
2022/01/03 04:09:23;;;;;;;1.80;1.50;;;;;;;18.88;52.56;96344.66;12610437;23;20028;-51
2022/01/03 04:14:43;;;;;;;2.20;1.48;;;;;;;18.88;52.38;96328.47;12589542;23;20521;-52
2022/01/03 04:20:07;;;;;;;2.80;1.55;;;;;;;18.86;52.47;96338.81;12611578;23;20041;-51
2022/01/03 04:25:26;;;;;;;1.70;1.40;;;;;;;18.86;52.33;96352.31;12589615;23;20018;-51
2022/01/03 04:30:46;;;;;;;1.77;1.40;;;;;;;18.85;52.46;96380.41;12610899;23;20029;-51
2022/01/03 04:36:07;;;;;;;2.60;1.60;;;;;;;18.85;52.29;96345.31;12630485;23;20028;-51
2022/01/03 04:41:27;;;;;;;1.67;1.33;;;;;;;18.82;52.43;96351.34;12610581;23;20018;-51
2022/01/03 04:46:47;;;;;;;1.83;1.50;;;;;;;18.82;52.44;96364.84;12610666;23;20023;-51
2022/01/03 04:52:06;;;;;;;2.05;1.48;;;;;;;18.80;52.50;96356.28;12610769;23;20515;-51
2022/01/03 04:57:28;;;;;;;1.88;1.40;;;;;;;18.80;52.33;96388.69;12588419;23;20072;-52
2022/01/03 05:02:48;;;;;;;1.50;1.40;;;;;;;18.80;52.41;96410.28;12610211;23;20469;-51
2022/01/03 05:08:08;;;;;;;1.88;1.48;;;;;;;18.76;52.44;96415.53;12629143;23;20033;-51
2022/01/03 05:13:29;;;;;;;1.85;1.70;;;;;;;18.78;52.46;96410.59;12627983;23;20081;-51
2022/01/03 05:18:48;;;;;;;2.50;1.50;;;;;;;18.76;52.89;96394.72;12609235;23;20022;-51
2022/01/03 05:24:08;;;;;;;1.60;1.42;;;;;;;18.76;52.99;96412.81;12588171;23;20097;-52
2022/01/03 05:29:28;;;;;;;1.50;1.25;;;;;;;18.77;53.17;96412.47;12566985;23;20050;-51
2022/01/03 05:34:48;;;;;;;2.33;1.25;;;;;;;18.78;53.51;96419.47;12607146;23;20122;-50
2022/01/03 05:40:08;;;;;;;1.40;1.02;;;;;;;18.77;53.14;96401.69;12609883;23;20022;-51
2022/01/03 05:45:29;;;;;;;1.90;1.35;;;;;;;18.79;52.98;96428.34;12609958;23;20609;-50
2022/01/03 05:50:49;;;;;;;2.45;1.20;;;;;;;18.83;53.32;96421.19;12588346;23;20022;-50
2022/01/03 05:56:10;;;;;;;2.58;1.33;;;;;;;18.86;53.38;96425.19;12588058;23;20109;-52
2022/01/03 06:01:30;;;;;;;2.05;1.20;;;;;;;18.89;53.25;96424.50;12609168;23;20026;-50
2022/01/03 06:07:02;;;;;;;1.45;1.23;;;;;;;18.90;53.12;96434.19;12609850;23;20308;-50
2022/01/03 06:12:32;;;;;;;3.15;1.20;;;;;;;18.91;52.94;96433.84;12569581;23;20028;-51
2022/01/03 06:17:53;;;;;;;4.32;1.65;;;;;;;18.94;53.08;96444.00;12609258;23;20065;-51
2022/01/03 06:23:15;;;;;;;10.48;3.47;;;;;;;18.97;53.01;96445.25;12607647;23;20654;-50
2022/01/03 06:28:35;;;;;;;16.13;4.40;;;;;;;19.00;52.92;96446.50;12608724;23;20382;-50
2022/01/03 06:33:55;;;;;;;14.93;4.20;;;;;;;19.03;53.14;96457.41;12586085;23;20019;-50
2022/01/03 06:39:15;;;;;;;15.07;4.13;;;;;;;19.07;53.06;96449.44;12588333;23;20021;-50
2022/01/03 06:44:35;;;;;;;9.52;3.72;;;;;;;19.11;53.08;96463.88;12609482;23;20323;-50
2022/01/03 06:49:55;;;;;;;10.80;3.60;;;;;;;19.13;53.13;96457.03;12611089;23;20091;-50
2022/01/03 06:55:16;;;;;;;10.98;3.58;;;;;;;19.15;52.90;96460.22;12591623;23;20085;-50
2022/01/03 07:00:39;;;;;;;9.43;3.40;;;;;;;19.17;52.89;96462.59;12610448;23;20018;-50
2022/01/03 07:05:58;;;;;;;10.25;3.35;;;;;;;19.20;52.94;96466.53;12591261;23;20073;-50
2022/01/03 07:11:18;;;;;;;8.98;3.33;;;;;;;19.21;52.98;96484.28;12612614;23;20026;-51
2022/01/03 07:22:16;;;;;;;8.43;3.33;;;;;;;19.23;52.89;96504.47;12611834;23;20093;-50
2022/01/03 07:27:37;;;;;;;10.73;3.30;;;;;;;19.25;52.85;96498.72;12611724;23;20265;-50
2022/01/03 07:32:56;;;;;;;8.10;3.28;;;;;;;19.25;53.00;96514.91;12612497;23;20022;-51
2022/01/03 07:38:15;;;;;;;10.95;3.50;;;;;;;19.27;52.90;96510.00;12612220;23;20443;-50
2022/01/03 07:43:34;;;;;;;6.93;3.05;;;;;;;19.27;52.78;96510.78;12612181;23;20018;-50
2022/01/03 07:48:54;;;;;;;7.45;3.05;;;;;;;19.29;52.61;96518.56;12612064;23;20018;-50
2022/01/03 07:54:13;;;;;;;6.70;2.90;;;;;;;19.29;52.58;96529.38;12612242;23;20026;-50
2022/01/03 07:59:32;;;;;;;7.45;2.85;;;;;;;19.29;52.72;96527.47;12611915;23;20018;-50
2022/01/03 08:04:52;;;;;;;6.05;2.55;;;;;;;19.30;52.68;96541.75;12611908;23;20500;-50
2022/01/03 08:10:12;;;;;;;6.88;2.85;;;;;;;19.31;52.83;96537.94;12607901;23;20026;-50
2022/01/03 08:15:32;;;;;;;7.35;2.65;;;;;;;19.30;52.83;96533.66;12610596;23;20395;-51
2022/01/03 08:20:53;;;;;;;7.80;2.90;;;;;;;19.32;52.80;96534.09;12610976;23;20374;-51
2022/01/03 08:26:12;;;;;;;8.05;2.55;;;;;;;19.32;52.72;96534.88;12630203;23;20019;-50
2022/01/03 08:31:32;;;;;;;4.43;2.13;;;;;;;19.32;52.73;96537.59;12611045;23;20022;-50
2022/01/03 08:36:51;;;;;;;5.70;2.63;;;;;;;19.33;52.64;96546.50;12610166;23;20020;-50
2022/01/03 08:42:11;;;;;;;5.13;2.30;;;;;;;19.32;52.72;96539.50;12610933;23;20018;-50
2022/01/03 08:47:31;;;;;;;6.30;2.38;;;;;;;19.32;52.72;96540.28;12610652;23;20312;-50
2022/01/03 08:52:51;;;;;;;4.38;2.35;;;;;;;19.31;52.66;96551.44;12607850;23;20042;-50
2022/01/03 08:58:12;;;;;;;6.97;2.20;;;;;;;19.31;52.68;96546.81;12608055;23;20015;-50
2022/01/03 09:03:32;;;;;;;4.55;2.28;;;;;;;19.32;52.65;96544.91;12629898;23;20019;-50
2022/01/03 09:08:51;;;;;;;3.63;2.45;;;;;;;19.31;52.46;96560.31;12629754;23;20018;-50
2022/01/03 09:14:11;;;;;;;3.72;2.15;;;;;;;19.30;52.43;96556.03;12608805;23;20030;-50
2022/01/03 09:19:31;;;;;;;5.30;2.33;;;;;;;19.30;52.58;96555.25;12609342;23;20022;-50
2022/01/03 09:28:48;;;;;;;3.92;2.00;;;;;;;19.31;52.36;96575.75;12608060;23;20026;-50
2022/01/03 09:30:34;;;;;;;4.05;2.00;;;;;;;19.30;52.56;96569.53;12607974;23;20029;-50
2022/01/03 09:35:54;;;;;;;3.90;2.08;;;;;;;19.29;52.23;96573.38;12610110;23;20021;-50
2022/01/03 09:41:18;;;;;;;3.33;1.92;;;;;;;19.30;52.41;96568.75;12609960;23;20019;-51
2022/01/03 09:46:40;;;;;;;2.85;1.63;;;;;;;19.28;52.25;96563.69;12630761;23;20019;-50
2022/01/03 09:52:00;;;;;;;5.25;2.03;;;;;;;19.28;52.44;96560.19;12614189;23;20026;-51
2022/01/03 09:57:21;;;;;;;5.22;2.03;;;;;;;19.28;52.14;96560.19;12614237;23;20019;-50
2022/01/03 10:02:41;;;;;;;3.30;1.90;;;;;;;19.27;52.27;96558.63;12614011;23;20025;-50
2022/01/03 10:08:01;;;;;;;3.28;1.80;;;;;;;19.26;52.23;96551.63;12592117;23;20084;-50
2022/01/03 10:13:20;;;;;;;3.17;1.98;;;;;;;19.26;52.17;96549.72;12613952;23;20022;-50
2022/01/03 10:18:40;;;;;;;2.88;1.73;;;;;;;19.25;52.22;96550.03;12633117;23;20025;-50
2022/01/03 10:23:59;;;;;;;3.70;1.98;;;;;;;19.25;52.01;96539.22;12612967;23;20022;-50
2022/01/03 10:29:21;;;;;;;3.20;1.80;;;;;;;19.25;52.05;96547.31;12613466;23;20018;-50
2022/01/03 10:34:40;;;;;;;3.90;1.83;;;;;;;19.24;52.17;96533.03;12633039;23;20024;-50
2022/01/03 10:40:16;;;;;;;2.50;1.55;;;;;;;19.23;52.17;96536.06;12613036;23;20019;-50
2022/01/03 10:45:35;;;;;;;2.30;1.60;;;;;;;19.23;52.15;96536.06;12613057;23;20025;-50
2022/01/03 10:50:57;;;;;;;4.82;1.75;;;;;;;19.23;52.18;96538.75;12631348;23;20049;-50
2022/01/03 10:56:37;;;;;;;3.38;1.65;;;;;;;19.23;52.11;96526.06;12611895;23;20575;-50
2022/01/03 11:01:56;;;;;;;2.67;1.77;;;;;;;19.22;51.90;96529.09;12612021;23;20022;-50
2022/01/03 11:13:18;;;;;;;4.80;2.10;;;;;;;19.21;50.33;96547.22;12631691;23;20029;-50
2022/01/03 11:18:48;;;;;;;3.92;1.52;;;;;;;19.20;49.28;96525.94;12610290;23;20030;-50
2022/01/03 11:24:13;;;;;;;2.75;1.52;;;;;;;19.19;48.31;96521.63;12612232;23;20022;-50
2022/01/03 11:29:33;;;;;;;2.25;1.20;;;;;;;19.16;47.49;96513.06;12611260;23;20070;-50
2022/01/03 11:34:52;;;;;;;3.65;1.40;;;;;;;19.13;46.66;96516.44;12611736;23;20018;-50
2022/01/03 11:40:14;;;;;;;3.28;1.45;;;;;;;19.11;46.16;96513.28;12611300;23;20042;-50
2022/01/03 11:45:34;;;;;;;2.13;1.13;;;;;;;19.08;45.16;96494.25;12608731;23;20025;-50
2022/01/03 11:50:54;;;;;;;3.15;1.35;;;;;;;19.07;45.09;96484.56;12609684;23;20018;-50
2022/01/03 11:56:19;;;;;;;4.13;1.25;;;;;;;19.05;44.43;96493.00;12611395;23;20086;-50
2022/01/03 12:07:22;;;;;;;2.97;1.50;;;;;;;19.00;43.39;96489.69;12611263;23;20410;-50
2022/01/03 12:12:42;;;;;;;2.95;1.55;;;;;;;18.99;43.11;96490.81;12629023;23;20026;-50
2022/01/03 12:18:03;;;;;;;3.20;1.80;;;;;;;18.96;42.52;96476.06;12608452;23;20398;-50
2022/01/03 12:23:37;;;;;;;2.80;1.73;;;;;;;18.92;41.76;96475.94;12628255;23;20037;-49
2022/01/03 12:29:02;;;;;;;3.30;1.67;;;;;;;18.91;41.80;96455.44;12608691;23;20023;-50
2022/01/03 12:34:22;;;;;;;2.50;1.90;;;;;;;18.89;41.73;96459.59;12608745;23;20485;-50
2022/01/03 12:40:06;;;;;;;3.53;1.80;;;;;;;18.87;41.18;96461.81;12608413;23;20403;-50
2022/01/03 12:45:35;;;;;;;6.53;2.28;;;;;;;18.85;41.24;96445.16;12627987;23;20042;-50
2022/01/03 12:50:55;;;;;;;;;;;;;;;18.82;39.85;96440.41;12628587;23;20458;-50
2022/01/03 12:56:19;;;;;;;5.80;2.28;;;;;;;18.81;41.06;96433.44;12627745;23;19950;-50
2022/01/03 13:01:38;;;;;;;5.78;2.42;;;;;;;18.80;41.01;96431.84;12627621;23;20090;-50
2022/01/03 13:07:01;;;;;;;6.57;2.08;;;;;;;18.77;40.91;96407.06;12627872;23;20023;-53
2022/01/03 13:12:22;;;;;;;6.45;2.28;;;;;;;18.76;40.70;96424.41;12608048;23;20022;-51
2022/01/03 13:17:42;;;;;;;6.05;2.20;;;;;;;18.74;40.48;96409.66;12585709;23;20023;-50
2022/01/03 13:23:02;;;;;;;7.95;2.58;;;;;;;18.72;40.61;96404.59;12627085;23;20022;-50
2022/01/03 13:28:21;;;;;;;4.88;2.20;;;;;;;18.72;40.63;96417.31;12607603;23;20028;-50
2022/01/03 13:33:40;;;;;;;5.53;2.20;;;;;;;18.71;40.42;96407.63;12606762;23;20026;-50
2022/01/03 13:39:16;;;;;;;5.25;1.95;;;;;;;18.69;40.39;96416.03;12607328;23;20014;-50
2022/01/03 13:50:04;;;;;;;7.07;2.00;;;;;;;18.64;40.37;96408.16;12627431;23;20073;-50
2022/01/03 13:55:29;;;;;;;4.95;2.05;;;;;;;18.64;40.52;96405.44;12606748;23;20026;-49
2022/01/03 14:00:57;;;;;;;5.45;1.75;;;;;;;18.61;40.45;96398.00;12627043;23;20023;-50
2022/01/03 14:06:18;;;;;;;5.05;1.92;;;;;;;18.61;40.46;96405.31;12605644;23;20019;-50
2022/01/03 14:11:37;;;;;;;6.18;2.38;;;;;;;18.58;40.54;96402.16;12626794;23;20519;-50
2022/01/03 14:17:00;;;;;;;3.92;1.85;;;;;;;18.58;40.49;96418.34;12606499;23;20022;-51
2022/01/03 14:22:19;;;;;;;5.65;1.90;;;;;;;18.57;40.58;96413.25;12609383;23;20029;-50
2022/01/03 14:27:41;;;;;;;3.15;1.42;;;;;;;18.55;40.89;96405.47;12608187;23;20019;-49
2022/01/03 14:33:04;;;;;;;5.05;1.70;;;;;;;18.52;40.71;96399.94;12608461;23;20018;-50
2022/01/03 14:38:27;;;;;;;4.32;2.00;;;;;;;18.51;42.44;96392.97;12607504;23;20181;-50
2022/01/03 14:43:55;;;;;;;3.45;1.60;;;;;;;18.51;42.76;96392.97;12610885;23;20023;-51
2022/01/03 14:49:19;;;;;;;4.25;1.73;;;;;;;18.52;43.01;96389.16;12612419;23;20069;-50
2022/01/03 14:54:49;;;;;;;3.72;1.42;;;;;;;18.50;43.21;96376.03;12612503;23;20022;-50
2022/01/03 15:00:09;;;;;;;3.97;1.60;;;;;;;18.49;43.33;96393.31;12612334;23;20354;-50
2022/01/03 15:05:29;;;;;;;2.85;1.30;;;;;;;18.49;43.55;96392.53;12612555;23;20038;-50
2022/01/03 15:10:48;;;;;;;4.47;1.67;;;;;;;18.48;43.62;96383.63;12591686;23;20022;-50
2022/01/03 15:16:08;;;;;;;4.57;1.70;;;;;;;18.48;43.71;96370.13;12632329;23;20030;-50
2022/01/03 15:21:27;;;;;;;2.97;1.30;;;;;;;18.50;44.10;96383.28;12612938;23;20454;-49
2022/01/03 15:26:46;;;;;;;3.72;1.50;;;;;;;18.51;44.22;96382.97;12611930;23;20015;-49
2022/01/03 15:32:06;;;;;;;3.53;1.60;;;;;;;18.51;44.16;96380.28;12632062;23;20025;-50
2022/01/03 15:37:26;;;;;;;4.03;1.40;;;;;;;18.53;44.41;96377.25;12611845;23;20015;-49
2022/01/03 15:42:45;;;;;;;3.13;1.52;;;;;;;18.54;44.45;96378.81;12612223;23;20019;-50
2022/01/03 15:48:06;;;;;;;2.72;1.55;;;;;;;18.56;44.70;96360.41;12612166;23;20018;-50
2022/01/03 15:53:26;;;;;;;3.13;1.30;;;;;;;18.58;44.71;96363.56;12612141;23;20025;-50
2022/01/03 15:58:45;;;;;;;3.88;1.50;;;;;;;18.60;44.67;96364.03;12612004;23;20015;-50
2022/01/03 16:04:06;;;;;;;5.38;1.60;;;;;;;18.60;42.57;96364.03;12631159;23;20018;-50
2022/01/03 16:09:25;;;;;;;1.70;1.20;;;;;;;18.56;43.36;96357.72;12608701;23;20015;-50
2022/01/03 16:14:45;;;;;;;1.95;1.10;;;;;;;18.58;44.19;96345.50;12610239;23;20085;-50
2022/01/03 16:20:05;;;;;;;2.67;1.50;;;;;;;18.62;44.50;96348.31;12611176;23;20018;-51
2022/01/03 16:25:25;;;;;;;3.38;1.40;;;;;;;18.67;44.81;96339.22;12629785;23;20509;-51
2022/01/03 16:30:45;;;;;;;2.00;1.17;;;;;;;18.71;45.10;96332.06;12610282;23;20022;-50
2022/01/03 16:36:05;;;;;;;5.13;1.45;;;;;;;18.74;45.24;96328.72;12607509;23;20469;-50
2022/01/03 16:41:25;;;;;;;3.67;1.20;;;;;;;18.77;45.44;96326.13;12609374;23;20073;-49
2022/01/03 16:46:44;;;;;;;2.78;1.30;;;;;;;18.82;45.77;96324.38;12630148;23;20018;-50
2022/01/03 16:52:04;;;;;;;3.22;1.42;;;;;;;18.86;46.35;96317.22;12606843;23;20542;-50
2022/01/03 16:57:25;;;;;;;3.72;1.45;;;;;;;18.91;46.41;96311.59;12609584;23;20014;-50
2022/01/03 17:02:44;;;;;;;5.43;1.30;;;;;;;18.93;46.58;96306.66;12609454;23;20097;-49
2022/01/03 17:08:04;;;;;;;2.15;1.13;;;;;;;18.98;46.75;96313.78;12609149;23;20041;-50
2022/01/03 17:13:25;;;;;;;3.15;1.02;;;;;;;19.00;46.85;96296.13;12608836;23;20029;-50
2022/01/03 17:18:45;;;;;;;2.13;1.10;;;;;;;19.04;47.15;96291.63;12608278;23;20393;-50
2022/01/03 17:24:05;;;;;;;1.73;1.02;;;;;;;19.07;46.83;96282.06;12609210;23;20346;-50
2022/01/03 17:29:26;;;;;;;1.77;1.10;;;;;;;19.11;46.93;96275.69;12609588;23;20022;-49
2022/01/03 17:34:46;;;;;;;8.18;1.30;;;;;;;19.15;46.82;96276.59;12608446;23;20023;-50
2022/01/03 17:40:06;;;;;;;2.45;1.20;;;;;;;19.19;46.69;96275.91;12608499;23;20656;-50
2022/01/03 17:45:25;;;;;;;1.92;1.15;;;;;;;19.22;46.76;96277.97;12609267;23;20605;-51
2022/01/03 17:50:45;;;;;;;3.00;1.23;;;;;;;19.26;46.73;96274.25;12607493;23;20019;-50
2022/01/03 17:56:06;;;;;;;4.57;1.30;;;;;;;19.30;46.66;96272.44;12607183;23;20486;-49
2022/01/03 18:01:26;;;;;;;2.92;1.20;;;;;;;19.34;46.35;96270.66;12609087;23;20018;-50
2022/01/03 18:06:49;;;;;;;3.78;1.10;;;;;;;19.39;46.43;96282.38;12628182;23;20028;-52
2022/01/03 18:12:09;;;;;;;2.70;1.10;;;;;;;19.45;46.85;96279.13;12611119;23;20027;-49
2022/01/03 18:17:29;;;;;;;1.73;1.08;;;;;;;19.49;47.23;96271.13;12611383;23;20474;-52
2022/01/03 18:22:48;;;;;;;7.03;3.97;;;;;;;19.55;47.46;96278.69;12631265;23;20335;-51
2022/01/03 18:28:08;;;;;;;4.93;2.20;;;;;;;19.61;47.75;96276.53;12611996;23;20084;-52
2022/01/03 18:33:27;;;;;;;6.68;2.10;;;;;;;19.66;48.10;96278.22;12611477;23;20025;-50
2022/01/03 18:38:46;;;;;;;3.15;1.73;;;;;;;19.72;48.21;96271.53;12631336;23;20022;-52
2022/01/03 18:44:06;;;;;;;5.75;1.90;;;;;;;19.76;48.39;96267.03;12612103;23;20018;-52
2022/01/03 18:49:26;;;;;;;2.47;1.70;;;;;;;19.81;48.40;96255.97;12606325;23;20015;-50
2022/01/03 18:54:45;;;;;;;3.85;1.42;;;;;;;19.88;48.22;96244.59;12630409;23;20018;-50
2022/01/03 19:00:06;;;;;;;3.33;1.63;;;;;;;19.91;48.34;96231.16;12611632;23;20022;-49
2022/01/03 19:05:26;;;;;;;7.13;2.03;;;;;;;19.97;48.35;96228.25;12611514;23;20018;-50
2022/01/03 19:10:45;;;;;;;4.65;1.30;;;;;;;20.02;48.43;96226.09;12631283;23;20120;-50
2022/01/03 19:16:05;;;;;;;2.97;1.27;;;;;;;20.05;48.58;96219.22;12630112;23;20046;-52
2022/01/03 19:21:25;;;;;;;3.53;1.30;;;;;;;20.09;48.66;96209.28;12610076;23;20395;-52
2022/01/03 19:26:45;;;;;;;3.20;1.50;;;;;;;20.15;49.08;96197.13;12610263;23;20028;-51
2022/01/03 19:32:06;;;;;;;4.93;1.50;;;;;;;20.19;49.13;96189.91;12610414;23;20583;-51
2022/01/03 19:43:05;;;;;;;4.10;1.50;;;;;;;20.25;49.74;96164.19;12610294;23;20492;-52
2022/01/03 19:48:25;;;;;;;4.45;1.52;;;;;;;20.28;49.77;96155.38;12610870;23;20022;-50
2022/01/03 19:53:47;;;;;;;5.00;2.00;;;;;;;20.30;49.73;96145.00;12609228;23;20348;-51
2022/01/03 19:59:06;;;;;;;4.63;1.65;;;;;;;20.31;49.99;96138.47;12610074;23;20037;-50
2022/01/03 20:04:26;;;;;;;5.20;1.80;;;;;;;20.35;50.08;96131.22;12609034;23;20053;-51
2022/01/03 20:09:47;;;;;;;4.13;1.58;;;;;;;20.38;50.09;96131.66;12609059;23;20022;-51
2022/01/03 20:15:11;;;;;;;6.55;1.83;;;;;;;20.41;50.11;96109.34;12608629;23;20104;-50
2022/01/03 20:20:34;;;;;;;4.35;1.50;;;;;;;20.43;50.24;96109.78;12609266;23;20018;-49
2022/01/03 20:25:55;;;;;;;5.60;1.75;;;;;;;20.45;50.34;96112.94;12588521;23;20478;-50
2022/01/03 20:31:15;;;;;;;3.83;1.48;;;;;;;20.46;50.47;96093.63;12608944;23;20533;-50
2022/01/03 20:36:34;;;;;;;5.72;1.70;;;;;;;20.49;50.38;96097.56;12609242;23;20014;-49
2022/01/03 20:41:54;;;;;;;2.78;1.55;;;;;;;20.50;50.48;96094.53;12609615;23;20048;-50
2022/01/03 20:47:14;;;;;;;2.50;1.50;;;;;;;20.50;50.50;96096.44;12609639;23;20029;-51
2022/01/03 20:52:34;;;;;;;3.35;1.25;;;;;;;20.52;50.55;96086.03;12609148;23;20510;-50
2022/01/03 20:57:57;;;;;;;4.80;1.50;;;;;;;20.52;50.59;96092.25;12609625;23;20023;-50
2022/01/03 21:03:17;;;;;;;2.53;1.50;;;;;;;20.53;50.48;96076.81;12587817;23;20026;-50
2022/01/03 21:08:37;;;;;;;3.33;1.35;;;;;;;20.53;50.60;96066.75;12607919;23;20150;-50
2022/01/03 21:13:56;;;;;;;2.85;1.35;;;;;;;20.55;50.69;96061.00;12628450;23;20102;-49
2022/01/03 21:19:15;;;;;;;2.67;1.40;;;;;;;20.55;50.57;96050.19;12608038;23;20073;-49
2022/01/03 21:24:35;;;;;;;9.23;2.30;;;;;;;20.54;50.52;96041.28;12629207;23;20025;-50
2022/01/03 21:29:55;;;;;;;6.10;1.90;;;;;;;20.53;50.53;96033.50;12608529;23;20022;-50
2022/01/03 21:35:14;;;;;;;4.53;1.52;;;;;;;20.52;50.60;96023.81;12627746;23;20093;-50
2022/01/03 21:40:34;;;;;;;3.83;1.58;;;;;;;20.50;50.68;96016.06;12609536;23;20393;-49
2022/01/03 21:45:53;;;;;;;3.95;1.40;;;;;;;20.49;50.68;96009.06;12608610;23;20040;-50
2022/01/03 21:51:13;;;;;;;3.25;1.33;;;;;;;20.49;50.70;96011.78;12609240;23;20355;-49
2022/01/03 21:56:33;;;;;;;3.65;1.45;;;;;;;20.49;50.64;96000.16;12609202;23;20019;-51
2022/01/03 22:01:53;;;;;;;3.15;1.40;;;;;;;20.49;50.61;95986.66;12608283;23;20049;-49
2022/01/03 22:07:14;;;;;;;3.70;1.40;;;;;;;20.47;50.62;95992.41;12608380;23;20019;-50
2022/01/03 22:12:34;;;;;;;3.95;1.60;;;;;;;20.49;50.72;96002.88;12609174;23;20073;-49
2022/01/03 22:17:53;;;;;;;2.60;1.30;;;;;;;20.47;50.62;95997.03;12604765;23;20029;-49
2022/01/03 22:23:13;;;;;;;2.22;1.10;;;;;;;20.47;50.62;95991.63;12605226;23;20069;-50
2022/01/03 22:28:33;;;;;;;2.63;1.60;;;;;;;20.47;50.63;95988.91;12606167;23;20014;-50
2022/01/03 22:33:54;;;;;;;2.72;1.30;;;;;;;20.46;50.83;95993.53;12625604;23;20014;-49
2022/01/03 22:39:13;;;;;;;2.45;1.20;;;;;;;20.45;50.77;95983.06;12606388;23;20019;-48
2022/01/03 22:44:33;;;;;;;2.35;1.52;;;;;;;20.45;50.75;95985.78;12604811;23;20030;-50
2022/01/03 22:49:52;;;;;;;2.97;1.30;;;;;;;20.45;50.86;95980.38;12605613;23;20101;-49
2022/01/03 22:55:12;;;;;;;2.03;1.05;;;;;;;20.44;50.84;95970.66;12608572;23;20494;-49
2022/01/03 23:00:32;;;;;;;2.90;1.30;;;;;;;20.44;50.91;95970.66;12609724;23;20028;-49
2022/01/03 23:05:51;;;;;;;2.10;1.15;;;;;;;20.42;50.90;95954.78;12608932;23;20122;-49
2022/01/03 23:11:12;;;;;;;5.03;1.23;;;;;;;20.42;50.95;95956.69;12612166;23;20133;-49
2022/01/03 23:16:31;;;;;;;2.75;1.30;;;;;;;20.41;50.97;95933.50;12610291;23;20085;-50
2022/01/03 23:21:51;;;;;;;4.07;1.25;;;;;;;20.41;50.99;95933.50;12627816;23;20023;-50
2022/01/03 23:27:10;;;;;;;2.50;1.10;;;;;;;20.39;51.00;95922.25;12611018;23;20023;-52
2022/01/03 23:32:30;;;;;;;2.78;1.10;;;;;;;20.39;50.94;95923.03;12612110;23;20355;-50
2022/01/03 23:37:50;;;;;;;2.03;1.15;;;;;;;20.38;50.92;95907.16;12610190;23;20022;-50
2022/01/03 23:43:09;;;;;;;3.28;1.20;;;;;;;20.39;50.88;95908.72;12611900;23;20046;-50
2022/01/03 23:48:29;;;;;;;2.40;1.30;;;;;;;20.37;50.82;95889.34;12611836;23;20447;-50
2022/01/03 23:53:49;;;;;;;2.50;1.10;;;;;;;20.34;50.87;95883.50;12631023;23;20022;-50
2022/01/03 23:59:09;;;;;;;2.10;1.10;;;;;;;20.34;50.76;95877.31;12630906;23;20022;-51
